Time;durP1;ratioP1;P1;durP2;ratioP2;P2;SDS_P1;SDS_P2;PMS_P1;PMS_P2;Temp;Humidity;BMP_temperature;BMP_pressure;BME280_temperature;BME280_humidity;BME280_pressure;Samples;Min_cycle;Max_cycle;Signal;HPM_P1;HPM_P2
2023/04/01 00:01:07;;;;;;;2.47;0.10;;;;;;;7.15;100.00;99502.41;5024223;28;20056;-72
2023/04/01 00:03:34;;;;;;;0.00;0.00;;;;;;;7.15;100.00;99512.78;5020737;28;20534;-72
2023/04/01 00:06:00;;;;;;;0.28;0.00;;;;;;;7.16;100.00;99519.59;5019030;28;20120;-72
2023/04/01 00:08:26;;;;;;;0.30;0.00;;;;;;;7.15;100.00;99502.41;5009594;28;20078;-72
2023/04/01 00:10:53;;;;;;;0.10;0.00;;;;;;;7.15;100.00;99505.81;5020794;28;20087;-73
2023/04/01 00:13:20;;;;;;;0.45;0.00;;;;;;;7.09;100.00;99503.81;5016133;28;20061;-72
2023/04/01 00:15:45;;;;;;;0.30;0.00;;;;;;;7.03;100.00;99503.59;5027378;28;20033;-72
2023/04/01 00:18:11;;;;;;;1.10;0.38;;;;;;;7.03;100.00;99498.44;5018214;28;20041;-72
2023/04/01 00:20:38;;;;;;;0.73;0.00;;;;;;;6.97;100.00;99497.22;5021305;28;20030;-73
2023/04/01 00:23:04;;;;;;;0.30;0.00;;;;;;;6.98;100.00;99510.03;5018906;28;20135;-73
2023/04/01 00:25:29;;;;;;;0.10;0.00;;;;;;;7.01;100.00;99521.06;5023596;28;20429;-72
2023/04/01 00:27:55;;;;;;;2.17;0.10;;;;;;;6.95;100.00;99527.63;5028315;28;20029;-73
2023/04/01 00:30:20;;;;;;;0.35;0.00;;;;;;;6.88;100.00;99522.22;5025872;28;20467;-72
2023/04/01 00:32:46;;;;;;;0.30;0.00;;;;;;;6.82;100.00;99507.25;5029750;28;20110;-73
2023/04/01 00:35:12;;;;;;;0.30;0.00;;;;;;;6.66;100.00;99504.44;5032936;28;20032;-72
2023/04/01 00:37:39;;;;;;;4.45;0.47;;;;;;;6.59;100.00;99496.47;5037412;28;20367;-73
2023/04/01 00:40:07;;;;;;;2.10;0.30;;;;;;;6.61;100.00;99488.56;5037896;28;20051;-73
2023/04/01 00:42:33;;;;;;;1.95;0.40;;;;;;;6.60;100.00;99492.09;5027718;28;20033;-72
2023/04/01 00:45:18;;;;;;;1.40;0.30;;;;;;;6.63;100.00;99507.31;5023554;28;20049;-72
2023/04/01 00:47:44;;;;;;;3.20;0.30;;;;;;;6.53;100.00;99509.97;5032128;28;20532;-73
2023/04/01 00:50:10;;;;;;;1.02;0.25;;;;;;;6.49;100.00;99510.41;5020938;28;20128;-72
2023/04/01 00:52:35;;;;;;;1.15;0.40;;;;;;;6.48;100.00;99519.09;5023786;28;21632;-73
2023/04/01 00:55:05;;;;;;;0.57;0.30;;;;;;;6.52;100.00;99515.28;5033434;28;20032;-72
2023/04/01 00:57:36;;;;;;;0.40;0.20;;;;;;;6.64;100.00;99514.94;5021869;28;20029;-72
2023/04/01 01:00:07;;;;;;;0.80;0.30;;;;;;;6.57;100.00;99513.09;5028874;28;20037;-73
2023/04/01 01:02:33;;;;;;;1.40;0.30;;;;;;;6.57;100.00;99513.09;5026317;28;20459;-73
2023/04/01 01:04:58;;;;;;;2.30;0.40;;;;;;;6.63;100.00;99505.53;5028781;28;20414;-73
2023/04/01 01:07:35;;;;;;;2.30;0.47;;;;;;;6.64;100.00;99501.19;5028418;28;20036;-72
2023/04/01 01:10:13;;;;;;;0.55;0.20;;;;;;;6.66;100.00;99496.69;5029686;28;20041;-72
2023/04/01 01:12:45;;;;;;;0.88;0.10;;;;;;;6.64;100.00;99498.59;5028184;28;20032;-72
2023/04/01 01:15:20;;;;;;;0.20;0.08;;;;;;;6.57;100.00;99494.97;5024930;28;20144;-73
2023/04/01 01:18:14;;;;;;;1.50;0.10;;;;;;;6.45;100.00;99494.34;5027833;28;20029;-73
2023/04/01 01:20:48;;;;;;;0.88;0.10;;;;;;;6.36;100.00;99496.94;5018194;28;20449;-72
2023/04/01 01:23:25;;;;;;;0.20;0.10;;;;;;;6.33;100.00;99491.09;5026048;28;20479;-72
2023/04/01 01:26:15;;;;;;;0.60;0.10;;;;;;;6.30;100.00;99486.19;5030693;28;20460;-72
2023/04/01 01:28:56;;;;;;;0.85;0.00;;;;;;;6.37;100.00;99480.47;5037476;28;20033;-72
2023/04/01 01:31:30;;;;;;;6.22;0.10;;;;;;;6.45;100.00;99478.00;5028673;28;20143;-72
2023/04/01 01:34:20;;;;;;;0.20;0.00;;;;;;;6.40;100.00;99464.66;5029565;28;20403;-72
2023/04/01 01:36:52;;;;;;;1.85;0.10;;;;;;;6.36;100.00;99458.13;5034423;28;20466;-72
2023/04/01 01:39:20;;;;;;;0.88;0.10;;;;;;;6.33;100.00;99459.25;5031319;28;20036;-72
2023/04/01 01:41:49;;;;;;;0.70;0.20;;;;;;;6.35;100.00;99454.72;5036983;28;20079;-72
2023/04/01 01:44:16;;;;;;;1.48;0.20;;;;;;;6.25;100.00;99439.25;5029001;28;20038;-72
2023/04/01 01:46:44;;;;;;;3.15;0.20;;;;;;;6.21;100.00;99439.66;5026357;28;20029;-72
2023/04/01 01:49:13;;;;;;;0.93;0.10;;;;;;;6.20;100.00;99438.03;5025132;28;20175;-72
2023/04/01 01:51:39;;;;;;;1.00;0.10;;;;;;;6.43;100.00;99433.34;5029651;28;20087;-72
2023/04/01 01:54:05;;;;;;;0.85;0.00;;;;;;;6.56;100.00;99429.47;5032133;28;20037;-73
2023/04/01 01:56:32;;;;;;;0.98;0.00;;;;;;;6.64;100.00;99426.13;5028388;28;20044;-73
2023/04/01 01:59:06;;;;;;;0.47;0.10;;;;;;;6.69;100.00;99418.75;5022820;28;20048;-73
2023/04/01 02:01:37;;;;;;;0.68;0.30;;;;;;;6.69;100.00;99416.16;5020941;28;20538;-72
2023/04/01 02:04:04;;;;;;;1.10;0.20;;;;;;;6.56;100.00;99415.72;5032756;28;20116;-72
2023/04/01 02:06:34;;;;;;;1.90;0.30;;;;;;;6.47;100.00;99414.78;5032508;28;20037;-72
2023/04/01 02:09:07;;;;;;;2.20;0.50;;;;;;;6.53;100.00;99409.03;5033040;28;20029;-71
2023/04/01 02:11:46;;;;;;;1.45;0.50;;;;;;;6.46;100.00;99412.34;5020957;28;20059;-72
2023/04/01 02:14:21;;;;;;;1.67;0.30;;;;;;;6.28;100.00;99410.50;5013251;28;20479;-72
2023/04/01 02:17:10;;;;;;;2.65;0.30;;;;;;;6.11;100.00;99405.28;5026120;28;20036;-72
2023/04/01 02:19:40;;;;;;;1.15;0.40;;;;;;;6.04;100.00;99404.22;5027283;28;20280;-72
2023/04/01 02:22:11;;;;;;;2.25;0.30;;;;;;;6.01;100.00;99412.25;5017404;28;20139;-72
2023/04/01 02:24:39;;;;;;;2.28;0.25;;;;;;;6.00;100.00;99411.44;5022574;28;20029;-72
2023/04/01 02:27:05;;;;;;;0.30;0.10;;;;;;;6.22;100.00;99403.31;5026780;28;20045;-72
2023/04/01 02:29:31;;;;;;;0.30;0.10;;;;;;;6.38;100.00;99404.47;5032488;28;20111;-73
2023/04/01 02:31:57;;;;;;;4.20;0.10;;;;;;;6.49;100.00;99417.25;5023817;28;20132;-72
2023/04/01 02:34:24;;;;;;;2.35;0.10;;;;;;;6.56;100.00;99413.13;5027628;28;20041;-73
2023/04/01 02:36:51;;;;;;;1.25;0.10;;;;;;;6.55;100.00;99414.06;5038864;28;20524;-72
2023/04/01 02:39:17;;;;;;;1.50;0.10;;;;;;;6.59;100.00;99418.00;5029243;28;20045;-72
2023/04/01 02:41:45;;;;;;;2.00;0.20;;;;;;;6.76;100.00;99419.78;5034219;28;20041;-72
2023/04/01 02:44:13;;;;;;;1.45;0.10;;;;;;;6.90;100.00;99427.06;5031112;28;20391;-72
2023/04/01 02:46:39;;;;;;;0.10;0.00;;;;;;;6.95;100.00;99424.88;5020580;28;20482;-72
2023/04/01 02:49:05;;;;;;;0.35;0.00;;;;;;;6.95;100.00;99429.22;5017667;28;20042;-72
2023/04/01 02:51:31;;;;;;;0.68;0.10;;;;;;;6.98;100.00;99434.94;5023194;28;20022;-72
2023/04/01 02:53:57;;;;;;;0.75;0.05;;;;;;;7.03;100.00;99436.28;5025018;28;20537;-73
2023/04/01 02:56:22;;;;;;;0.10;0.00;;;;;;;7.04;100.00;99438.72;5023010;28;20056;-72
2023/04/01 02:58:48;;;;;;;0.28;0.00;;;;;;;6.88;100.00;99438.53;5019038;28;20137;-72
2023/04/01 03:01:13;;;;;;;0.32;0.10;;;;;;;6.63;100.00;99440.84;5025025;28;20436;-72
2023/04/01 03:03:39;;;;;;;0.52;0.10;;;;;;;6.52;100.00;99440.25;5019280;28;20068;-73
2023/04/01 03:06:11;;;;;;;1.65;0.10;;;;;;;6.49;100.00;99448.28;5019762;28;20411;-72
2023/04/01 03:08:37;;;;;;;1.38;0.13;;;;;;;6.47;100.00;99445.03;5018141;28;20033;-72
2023/04/01 03:11:02;;;;;;;4.63;0.20;;;;;;;6.43;100.00;99447.09;5026934;28;20449;-72
2023/04/01 03:13:28;;;;;;;2.17;0.20;;;;;;;6.44;100.00;99450.47;5025540;28;20029;-72
2023/04/01 03:15:53;;;;;;;1.38;0.10;;;;;;;6.33;100.00;99441.94;5018206;28;20104;-72
2023/04/01 03:18:19;;;;;;;0.82;0.10;;;;;;;6.18;100.00;99430.41;5030357;28;20174;-72
2023/04/01 03:20:45;;;;;;;4.03;0.88;;;;;;;6.06;100.00;99435.94;5026806;28;20056;-72
2023/04/01 03:23:11;;;;;;;1.55;0.30;;;;;;;5.93;100.00;99433.63;5019025;28;20590;-72
2023/04/01 03:25:36;;;;;;;1.80;0.30;;;;;;;5.84;100.00;99422.31;5027322;28;20032;-72
2023/04/01 03:28:02;;;;;;;1.33;0.38;;;;;;;5.79;100.00;99434.03;5024132;28;20130;-73
2023/04/01 03:30:29;;;;;;;3.53;0.20;;;;;;;5.75;100.00;99438.66;5025404;28;20052;-73
2023/04/01 03:32:55;;;;;;;1.33;0.30;;;;;;;5.68;100.00;99447.91;5030260;28;20095;-73
2023/04/01 03:35:20;;;;;;;2.30;0.30;;;;;;;5.94;100.00;99441.25;5031934;28;20486;-73
2023/04/01 03:37:46;;;;;;;1.70;0.20;;;;;;;6.00;100.00;99452.81;5026322;28;20025;-74
2023/04/01 03:40:12;;;;;;;1.95;0.20;;;;;;;5.91;100.00;99456.22;5024670;28;20055;-73
2023/04/01 03:42:37;;;;;;;4.00;0.25;;;;;;;5.83;100.00;99461.25;5029358;28;20044;-74
2023/04/01 03:45:04;;;;;;;5.43;0.38;;;;;;;5.71;100.00;99470.91;5029630;28;20120;-74
2023/04/01 03:47:30;;;;;;;1.30;0.20;;;;;;;5.63;100.00;99466.44;5029276;28;20116;-74
2023/04/01 03:49:55;;;;;;;2.38;0.20;;;;;;;5.54;100.00;99462.09;5034261;28;20115;-73
2023/04/01 03:52:21;;;;;;;0.70;0.10;;;;;;;5.52;100.00;99473.53;5022081;28;20165;-74
2023/04/01 03:54:46;;;;;;;1.40;0.38;;;;;;;5.99;100.00;99467.50;5033500;28;20068;-74
2023/04/01 03:57:12;;;;;;;2.63;0.40;;;;;;;6.22;100.00;99467.16;5033132;28;20032;-74
2023/04/01 03:59:37;;;;;;;2.22;0.30;;;;;;;6.23;100.00;99463.63;5026322;28;20044;-73
2023/04/01 04:02:03;;;;;;;1.92;0.47;;;;;;;6.18;100.00;99471.81;5027756;28;20038;-74
2023/04/01 04:04:28;;;;;;;1.33;0.20;;;;;;;6.15;100.00;99479.03;5032885;28;20072;-74
2023/04/01 04:06:56;;;;;;;2.85;0.40;;;;;;;6.01;100.00;99480.31;5026952;28;20040;-73
2023/04/01 04:09:21;;;;;;;4.78;1.73;;;;;;;6.09;100.00;99482.19;5029655;28;20044;-73
2023/04/01 04:11:47;;;;;;;2.22;0.68;;;;;;;6.28;100.00;99482.94;5031644;28;20022;-73
2023/04/01 04:14:12;;;;;;;3.28;0.40;;;;;;;6.12;100.00;99474.97;5036938;28;20025;-74
2023/04/01 04:16:38;;;;;;;2.53;0.40;;;;;;;5.88;100.00;99484.91;5021280;28;20030;-74
2023/04/01 04:19:04;;;;;;;2.53;0.60;;;;;;;5.84;100.00;99483.56;5031565;28;20095;-73
2023/04/01 04:21:29;;;;;;;4.50;0.60;;;;;;;5.90;100.00;99490.78;5030653;28;20748;-73
2023/04/01 04:23:55;;;;;;;2.42;0.30;;;;;;;6.29;100.00;99481.97;5033770;28;20116;-73
2023/04/01 04:26:20;;;;;;;0.30;0.10;;;;;;;6.55;100.00;99484.75;5031003;28;20158;-74
2023/04/01 04:28:46;;;;;;;0.20;0.10;;;;;;;6.71;100.00;99488.50;5026519;28;20026;-73
2023/04/01 04:31:12;;;;;;;0.43;0.10;;;;;;;6.80;100.00;99492.81;5030943;28;20041;-73
2023/04/01 04:33:37;;;;;;;0.75;0.30;;;;;;;6.79;100.00;99497.19;5021625;28;20395;-73
2023/04/01 04:36:04;;;;;;;2.75;0.32;;;;;;;6.77;100.00;99493.91;5027296;28;20094;-73
2023/04/01 04:38:30;;;;;;;4.75;0.95;;;;;;;6.72;100.00;99496.13;5026405;28;20765;-73
2023/04/01 04:40:55;;;;;;;1.33;0.50;;;;;;;6.60;100.00;99492.91;5029191;28;20033;-74
2023/04/01 04:43:21;;;;;;;1.00;0.20;;;;;;;6.57;100.00;99500.97;5027586;28;20029;-74
2023/04/01 04:45:47;;;;;;;2.30;0.32;;;;;;;6.69;100.00;99504.16;5024756;28;20429;-73
2023/04/01 04:48:18;;;;;;;1.58;0.10;;;;;;;6.70;100.00;99499.81;5026889;28;20044;-73
2023/04/01 04:50:44;;;;;;;0.40;0.13;;;;;;;6.71;100.00;99504.03;5030686;28;20084;-73
2023/04/01 04:53:11;;;;;;;0.77;0.10;;;;;;;6.72;100.00;99505.66;5024610;28;20108;-73
2023/04/01 04:55:36;;;;;;;17.63;0.55;;;;;;;6.72;100.00;99501.28;5021576;28;20064;-73
2023/04/01 04:58:02;;;;;;;2.38;0.20;;;;;;;6.77;100.00;99501.69;5027689;28;20061;-74
2023/04/01 05:00:27;;;;;;;2.22;0.20;;;;;;;6.88;100.00;99511.84;5030826;28;20050;-73
2023/04/01 05:02:53;;;;;;;0.55;0.10;;;;;;;6.97;100.00;99511.00;5022176;28;20037;-74
2023/04/01 05:05:18;;;;;;;1.38;0.30;;;;;;;7.01;100.00;99516.69;5025672;28;20131;-74
2023/04/01 05:07:44;;;;;;;2.63;0.52;;;;;;;6.90;100.00;99514.28;5027888;28;20512;-74
2023/04/01 05:10:09;;;;;;;1.63;0.50;;;;;;;6.83;100.00;99513.25;5030074;28;20058;-74
2023/04/01 05:12:37;;;;;;;3.83;0.40;;;;;;;6.74;100.00;99517.50;5027487;28;20128;-74
2023/04/01 05:15:06;;;;;;;0.77;0.20;;;;;;;6.71;100.00;99520.38;5027698;28;20039;-75
2023/04/01 05:17:32;;;;;;;1.10;0.30;;;;;;;6.67;100.00;99519.03;5025847;28;20095;-74
2023/04/01 05:19:57;;;;;;;1.17;0.40;;;;;;;6.77;100.00;99513.81;5022624;28;20033;-74
2023/04/01 05:22:23;;;;;;;2.15;0.47;;;;;;;6.93;100.00;99530.38;5028145;28;20092;-74
2023/04/01 05:24:48;;;;;;;1.60;0.63;;;;;;;7.14;100.00;99531.88;5027854;28;20044;-74
2023/04/01 05:27:14;;;;;;;2.35;0.88;;;;;;;7.23;100.00;99531.00;5026872;28;20030;-74
2023/04/01 05:29:40;;;;;;;4.00;0.57;;;;;;;7.27;100.00;99529.75;5029140;28;20026;-74
2023/04/01 05:32:05;;;;;;;2.13;0.35;;;;;;;7.33;100.00;99531.78;5027615;28;20079;-74
2023/04/01 05:34:31;;;;;;;2.72;0.30;;;;;;;7.41;100.00;99537.03;5029513;28;20030;-73
2023/04/01 05:36:56;;;;;;;0.45;0.10;;;;;;;7.48;100.00;99534.69;5030955;28;20128;-74
2023/04/01 05:39:22;;;;;;;1.17;0.10;;;;;;;7.51;100.00;99547.34;5033100;28;20970;-74
2023/04/01 05:41:47;;;;;;;0.57;0.20;;;;;;;7.49;100.00;99539.72;5031108;28;20033;-74
2023/04/01 05:44:12;;;;;;;5.35;0.20;;;;;;;7.50;100.00;99545.72;5026886;28;20032;-74
2023/04/01 05:46:38;;;;;;;1.83;0.20;;;;;;;7.51;100.00;99542.97;5030834;28;20047;-74
2023/04/01 05:49:03;;;;;;;1.75;0.40;;;;;;;7.54;100.00;99547.88;5032427;28;20048;-74
2023/04/01 05:51:29;;;;;;;0.60;0.20;;;;;;;7.57;100.00;99554.50;5022376;28;20432;-74
2023/04/01 05:53:54;;;;;;;1.08;0.20;;;;;;;7.56;100.00;99551.09;5028849;28;20048;-74
2023/04/01 05:56:20;;;;;;;1.83;0.20;;;;;;;7.57;100.00;99550.13;5030693;28;20029;-74
2023/04/01 05:58:51;;;;;;;2.97;0.30;;;;;;;7.59;100.00;99566.34;5032150;28;20496;-73
2023/04/01 06:01:16;;;;;;;2.33;0.30;;;;;;;7.58;100.00;99562.13;5023748;28;20432;-74
2023/04/01 06:03:41;;;;;;;8.68;3.00;;;;;;;7.61;100.00;99564.44;5028641;28;20064;-74
2023/04/01 06:06:19;;;;;;;3.13;0.95;;;;;;;7.61;100.00;99564.44;5028023;28;20116;-74
2023/04/01 06:08:45;;;;;;;3.17;0.50;;;;;;;7.60;100.00;99568.00;5027040;28;20026;-74
2023/04/01 06:11:16;;;;;;;1.65;0.30;;;;;;;7.58;100.00;99567.31;5025421;28;20048;-74
2023/04/01 06:13:45;;;;;;;1.25;0.30;;;;;;;7.57;100.00;99573.47;5032420;28;20067;-74
2023/04/01 06:16:24;;;;;;;2.00;0.10;;;;;;;7.63;100.00;99567.69;5029774;28;20546;-73
2023/04/01 06:19:08;;;;;;;1.85;0.20;;;;;;;7.71;100.00;99573.94;5019391;28;20025;-73
2023/04/01 06:21:48;;;;;;;2.40;0.90;;;;;;;7.76;100.00;99576.91;5029279;28;20411;-74
2023/04/01 06:24:25;;;;;;;1.50;0.20;;;;;;;7.73;100.00;99583.19;5017176;28;20380;-74
2023/04/01 06:27:10;;;;;;;1.10;0.20;;;;;;;7.74;100.00;99586.59;5022629;28;20042;-74
2023/04/01 06:29:50;;;;;;;1.48;0.20;;;;;;;7.71;100.00;99576.53;5022695;28;20045;-74
2023/04/01 06:32:38;;;;;;;0.43;0.20;;;;;;;7.75;100.00;99593.41;5032677;28;20056;-75
2023/04/01 06:35:31;;;;;;;2.80;0.60;;;;;;;7.78;100.00;99593.13;5009431;28;20521;-75
2023/04/01 06:38:27;;;;;;;2.33;0.30;;;;;;;7.77;100.00;99586.31;5027764;28;20045;-74
2023/04/01 06:41:30;;;;;;;1.75;0.40;;;;;;;7.79;100.00;99579.19;5031620;28;20037;-74
2023/04/01 06:44:12;;;;;;;1.33;0.40;;;;;;;7.86;100.00;99588.84;4978523;28;20038;-74
2023/04/01 06:46:37;;;;;;;0.50;0.20;;;;;;;7.94;100.00;99591.50;4980702;28;20492;-72
2023/04/01 06:49:13;;;;;;;1.98;0.40;;;;;;;8.02;100.00;99595.94;4979366;28;20057;-74
2023/04/01 06:52:10;;;;;;;1.35;0.30;;;;;;;8.05;100.00;99605.19;4981480;28;20043;-74
2023/04/01 06:54:44;;;;;;;1.00;0.40;;;;;;;8.09;100.00;99607.34;4949055;28;20533;-74
2023/04/01 06:57:41;;;;;;;2.08;0.25;;;;;;;8.18;100.00;99609.03;4979329;28;20164;-74
2023/04/01 07:00:39;;;;;;;2.03;0.20;;;;;;;8.33;100.00;99617.13;4965245;28;20144;-74
2023/04/01 07:03:13;;;;;;;0.50;0.10;;;;;;;8.71;100.00;99615.94;4972607;28;20054;-74
2023/04/01 07:05:39;;;;;;;0.95;0.10;;;;;;;8.83;100.00;99606.91;4981673;28;20043;-74
2023/04/01 07:08:10;;;;;;;0.40;0.10;;;;;;;9.06;100.00;99614.97;4957870;28;20054;-74
2023/04/01 07:10:44;;;;;;;3.40;0.20;;;;;;;9.36;100.00;99616.25;4976824;28;20069;-74
2023/04/01 07:13:21;;;;;;;1.20;0.20;;;;;;;9.65;100.00;99621.84;4965569;28;20385;-74
2023/04/01 07:16:18;;;;;;;4.85;0.50;;;;;;;9.75;100.00;99619.13;4967384;28;20093;-74
2023/04/01 07:18:59;;;;;;;0.43;0.10;;;;;;;10.05;100.00;99616.88;4980018;28;20039;-74
2023/04/01 07:22:00;;;;;;;0.50;0.10;;;;;;;10.26;98.48;99612.84;5024405;28;20229;-74
2023/04/01 07:24:29;;;;;;;1.00;0.17;;;;;;;10.56;98.71;99618.34;4984172;28;20049;-74
2023/04/01 07:26:57;;;;;;;2.58;0.10;;;;;;;10.92;100.00;99611.75;4981000;28;20084;-74
2023/04/01 07:29:23;;;;;;;0.77;0.10;;;;;;;11.01;97.97;99606.53;4982391;28;20050;-74
2023/04/01 07:32:19;;;;;;;1.85;0.10;;;;;;;11.12;91.52;99604.38;4980299;28;20069;-74
2023/04/01 07:35:06;;;;;;;0.22;0.10;;;;;;;11.28;90.52;99611.31;4973253;28;20058;-74
2023/04/01 07:37:49;;;;;;;;;;;;;;;11.18;84.63;99605.50;4976821;28;20027;-74
2023/04/01 07:40:21;;;;;;;0.22;0.10;;;;;;;11.08;89.16;99626.53;4981616;28;19917;-74
2023/04/01 07:43:10;;;;;;;1.58;0.10;;;;;;;11.78;88.81;99623.97;4982442;28;20509;-73
2023/04/01 07:46:07;;;;;;;1.33;0.30;;;;;;;12.96;83.43;99622.44;4983789;28;20031;-73
2023/04/01 07:48:46;;;;;;;1.67;0.40;;;;;;;13.26;79.42;99627.69;4984670;28;20447;-73
2023/04/01 07:51:31;;;;;;;3.28;0.60;;;;;;;13.33;79.35;99627.75;4981310;28;20536;-74
2023/04/01 07:54:10;;;;;;;4.38;0.55;;;;;;;13.44;82.68;99629.91;4985401;28;21993;-74
2023/04/01 07:57:16;;;;;;;0.82;0.20;;;;;;;13.21;76.08;99624.81;4983015;28;20030;-73
2023/04/01 07:59:57;;;;;;;1.83;0.30;;;;;;;12.77;83.87;99630.81;4967232;28;20470;-74
2023/04/01 08:02:51;;;;;;;2.97;0.90;;;;;;;12.53;84.83;99628.44;5027947;28;20041;-74
2023/04/01 08:05:27;;;;;;;3.88;0.40;;;;;;;12.73;85.54;99632.19;5026224;28;20057;-74
2023/04/01 08:08:06;;;;;;;5.35;1.30;;;;;;;12.68;82.16;99644.16;5031624;28;20060;-74
2023/04/01 08:11:09;;;;;;;1.27;0.50;;;;;;;12.80;83.82;99643.53;5030443;28;20511;-74
2023/04/01 08:13:49;;;;;;;0.30;0.10;;;;;;;13.11;81.36;99643.38;4961441;28;20046;-72
2023/04/01 08:16:20;;;;;;;2.38;0.20;;;;;;;13.28;82.57;99639.59;4958489;28;20039;-72
2023/04/01 08:19:15;;;;;;;1.58;0.20;;;;;;;13.33;77.46;99635.63;4957507;28;20035;-73
2023/04/01 08:21:49;;;;;;;0.80;0.30;;;;;;;13.34;81.92;99639.84;4960628;28;20042;-72
2023/04/01 08:24:25;;;;;;;0.75;0.20;;;;;;;13.46;81.10;99644.44;4964073;28;20050;-72
2023/04/01 08:26:55;;;;;;;2.00;0.20;;;;;;;13.49;81.64;99636.22;4965311;28;20030;-72
2023/04/01 08:29:25;;;;;;;1.88;0.10;;;;;;;13.54;80.27;99641.72;4962702;28;20085;-72
2023/04/01 08:32:05;;;;;;;0.65;0.00;;;;;;;13.43;76.01;99639.56;4944057;28;20039;-72
2023/04/01 08:34:36;;;;;;;0.15;0.03;;;;;;;13.63;78.04;99631.16;4966778;28;20106;-72
2023/04/01 08:37:10;;;;;;;1.77;0.00;;;;;;;13.97;76.11;99630.50;4958208;28;20066;-72
2023/04/01 08:40:19;;;;;;;0.32;0.10;;;;;;;14.02;70.75;99622.91;4963447;28;20118;-72
2023/04/01 08:42:50;;;;;;;0.93;0.10;;;;;;;14.37;75.47;99637.72;4950111;28;20116;-72
2023/04/01 08:45:37;;;;;;;0.40;0.10;;;;;;;14.52;74.45;99638.47;4957986;28;20071;-72
2023/04/01 08:48:27;;;;;;;0.20;0.10;;;;;;;14.75;73.59;99630.38;4964467;28;20501;-73
2023/04/01 08:51:16;;;;;;;2.40;0.10;;;;;;;15.02;73.56;99639.22;5029298;28;20124;-73
2023/04/01 08:54:20;;;;;;;0.50;0.10;;;;;;;14.80;69.88;99642.91;5030263;28;20410;-73
2023/04/01 08:56:57;;;;;;;1.35;0.10;;;;;;;15.00;74.17;99648.28;5028002;28;20033;-73
2023/04/01 08:59:55;;;;;;;0.65;0.10;;;;;;;15.05;71.76;99651.94;5029839;28;20478;-69
2023/04/01 09:02:23;;;;;;;0.43;0.10;;;;;;;15.85;75.00;99645.25;5028213;28;20049;-69
2023/04/01 09:05:23;;;;;;;1.00;0.10;;;;;;;16.44;65.73;99650.56;5033399;28;20048;-69
2023/04/01 09:07:57;;;;;;;0.50;0.10;;;;;;;16.71;64.24;99648.75;5034124;28;20026;-70
2023/04/01 09:10:38;;;;;;;0.47;0.10;;;;;;;15.51;66.96;99646.94;5027737;28;20560;-69
2023/04/01 09:13:24;;;;;;;1.20;0.10;;;;;;;14.82;73.69;99656.63;5027266;28;20029;-69
2023/04/01 09:16:04;;;;;;;0.50;0.10;;;;;;;14.43;72.48;99654.53;5028657;28;20037;-69
2023/04/01 09:18:48;;;;;;;0.82;0.10;;;;;;;14.51;73.95;99654.41;5022700;28;20038;-68
2023/04/01 09:21:25;;;;;;;1.55;0.13;;;;;;;14.56;75.54;99658.06;5025643;28;20025;-69
2023/04/01 09:23:57;;;;;;;0.20;0.10;;;;;;;14.43;73.39;99663.19;5031873;28;20049;-69
2023/04/01 09:26:55;;;;;;;0.93;0.10;;;;;;;14.28;70.70;99660.63;5039958;28;20044;-69
2023/04/01 09:29:26;;;;;;;0.88;0.08;;;;;;;14.34;78.31;99655.63;5031373;28;20097;-69
2023/04/01 09:32:10;;;;;;;0.57;0.10;;;;;;;14.27;77.64;99653.75;5028609;28;20043;-73
2023/04/01 09:34:59;;;;;;;1.55;0.20;;;;;;;14.16;79.23;99656.91;5027372;28;20064;-72
2023/04/01 09:37:46;;;;;;;2.53;0.10;;;;;;;14.17;78.08;99652.47;5032919;28;20041;-73
2023/04/01 09:40:19;;;;;;;0.70;0.10;;;;;;;14.26;79.96;99657.38;5038135;28;20071;-72
2023/04/01 09:43:02;;;;;;;0.40;0.20;;;;;;;14.22;80.14;99656.13;5043273;28;20033;-73
2023/04/01 09:45:27;;;;;;;1.00;0.20;;;;;;;14.21;80.52;99654.50;5037695;28;20040;-73
2023/04/01 09:48:10;;;;;;;2.58;0.10;;;;;;;14.30;80.79;99660.44;5036556;28;20026;-73
2023/04/01 09:50:43;;;;;;;1.60;0.10;;;;;;;14.27;81.06;99651.13;5040957;28;20523;-72
2023/04/01 09:53:28;;;;;;;1.35;0.20;;;;;;;14.10;79.59;99652.41;5027417;28;20082;-72
2023/04/01 09:56:19;;;;;;;1.55;0.20;;;;;;;13.99;81.66;99652.88;5034978;28;20029;-72
2023/04/01 09:59:30;;;;;;;1.33;0.10;;;;;;;14.02;74.44;99654.31;5032390;28;20037;-72
2023/04/01 10:02:14;;;;;;;2.05;0.00;;;;;;;14.01;73.98;99650.91;5014368;28;20073;-73
2023/04/01 10:05:09;;;;;;;0.43;0.10;;;;;;;14.21;71.17;99645.81;5031793;28;20570;-73
2023/04/01 10:08:08;;;;;;;0.35;0.00;;;;;;;14.34;74.62;99655.63;5031538;28;20045;-72
2023/04/01 10:11:11;;;;;;;0.25;0.10;;;;;;;14.25;72.01;99650.50;5032994;28;20044;-73
2023/04/01 10:13:51;;;;;;;4.80;0.10;;;;;;;14.17;73.76;99645.41;5032271;28;20029;-73
2023/04/01 10:16:34;;;;;;;0.30;0.10;;;;;;;14.36;70.23;99653.63;5033317;28;20122;-74
2023/04/01 10:19:17;;;;;;;0.43;0.20;;;;;;;14.34;69.63;99647.75;5040208;28;20040;-73
2023/04/01 10:21:54;;;;;;;0.75;0.00;;;;;;;14.47;67.11;99647.91;5032361;28;20479;-73
2023/04/01 10:24:34;;;;;;;0.40;0.10;;;;;;;14.40;66.76;99647.00;5035995;28;20068;-73
2023/04/01 10:27:53;;;;;;;0.25;0.00;;;;;;;14.27;64.21;99635.41;5023529;28;20029;-73
2023/04/01 10:30:37;;;;;;;2.70;0.05;;;;;;;14.28;69.56;99629.16;4965734;28;20431;-73
2023/04/01 10:33:39;;;;;;;1.65;0.00;;;;;;;14.37;69.02;99635.09;4953570;28;20516;-72
2023/04/01 10:36:08;;;;;;;0.10;0.00;;;;;;;14.20;72.77;99631.91;4960518;28;20398;-72
2023/04/01 10:39:10;;;;;;;0.65;0.00;;;;;;;14.45;68.59;99632.38;4965964;28;20122;-72
2023/04/01 10:41:50;;;;;;;1.80;0.00;;;;;;;14.70;66.68;99630.13;4966989;28;20142;-71
2023/04/01 10:45:08;;;;;;;0.20;0.00;;;;;;;14.75;64.28;99635.59;4966347;28;20408;-68
2023/04/01 10:48:24;;;;;;;0.40;0.00;;;;;;;14.65;67.21;99634.34;4856344;29;20519;-68
2023/04/01 10:51:09;;;;;;;0.17;0.08;;;;;;;14.56;71.94;99638.91;4866594;29;20146;-71
2023/04/01 10:53:41;;;;;;;1.20;0.10;;;;;;;14.57;72.89;99637.91;4866158;29;20061;-72
2023/04/01 10:56:26;;;;;;;0.10;0.00;;;;;;;14.46;66.72;99630.56;4864158;29;20060;-72
2023/04/01 10:59:28;;;;;;;0.10;0.00;;;;;;;14.41;65.27;99630.28;4866995;29;20037;-72
2023/04/01 11:02:00;;;;;;;0.57;0.00;;;;;;;14.42;70.38;99624.88;4871018;29;20049;-72
2023/04/01 11:04:31;;;;;;;0.17;0.00;;;;;;;14.39;71.70;99625.25;4894650;29;20056;-72
2023/04/01 11:07:21;;;;;;;1.50;0.08;;;;;;;14.35;69.96;99623.19;4905051;29;20075;-72
2023/04/01 11:10:02;;;;;;;0.15;0.05;;;;;;;14.51;72.38;99617.72;4912664;29;20131;-72
2023/04/01 11:12:39;;;;;;;0.40;0.00;;;;;;;14.47;71.56;99619.91;4905571;29;20044;-72
2023/04/01 11:15:10;;;;;;;0.50;0.00;;;;;;;14.43;72.45;99620.47;4914167;29;20047;-72
2023/04/01 11:17:48;;;;;;;0.30;0.00;;;;;;;14.34;70.44;99617.13;4904794;28;20249;-72
2023/04/01 11:20:41;;;;;;;2.42;0.00;;;;;;;14.35;69.89;99607.47;4981026;28;20049;-72
2023/04/01 11:23:33;;;;;;;0.35;0.03;;;;;;;14.53;69.36;99606.03;5028617;28;20479;-72
2023/04/01 11:26:35;;;;;;;0.55;0.15;;;;;;;14.73;68.45;99602.72;5032010;28;20465;-72
2023/04/01 11:29:09;;;;;;;0.30;0.00;;;;;;;14.87;69.32;99607.84;5019771;28;20040;-71
2023/04/01 11:32:00;;;;;;;0.80;0.03;;;;;;;14.84;69.15;99602.19;5032540;28;20041;-72
2023/04/01 11:34:37;;;;;;;0.17;0.10;;;;;;;14.79;69.26;99600.13;5020136;28;20033;-71
2023/04/01 11:37:34;;;;;;;1.10;0.10;;;;;;;14.83;65.14;99606.63;5031643;28;20419;-72
2023/04/01 11:40:18;;;;;;;0.20;0.00;;;;;;;14.84;68.49;99603.00;5030603;28;20044;-74
2023/04/01 11:43:01;;;;;;;0.43;0.10;;;;;;;14.80;69.15;99596.50;5020130;28;20037;-71
2023/04/01 11:45:35;;;;;;;1.13;0.10;;;;;;;14.94;69.14;99586.91;5024027;28;20734;-73
2023/04/01 11:48:12;;;;;;;0.20;0.10;;;;;;;15.07;68.43;99586.19;5029045;28;20474;-72
2023/04/01 11:51:15;;;;;;;1.23;0.00;;;;;;;15.22;65.61;99581.59;5025965;28;20029;-70
2023/04/01 11:53:55;;;;;;;2.25;0.10;;;;;;;15.15;67.59;99575.50;5019467;28;20463;-71
2023/04/01 11:56:44;;;;;;;0.20;0.00;;;;;;;15.17;67.65;99582.16;5023195;28;20033;-71
2023/04/01 11:59:16;;;;;;;0.95;0.20;;;;;;;15.24;68.98;99575.13;5018749;28;20056;-72
2023/04/01 12:01:54;;;;;;;0.30;0.00;;;;;;;15.21;66.77;99572.09;5013163;28;20044;-72
2023/04/01 12:04:41;;;;;;;0.10;0.00;;;;;;;15.19;65.29;99580.16;5018191;28;20402;-73
2023/04/01 12:07:45;;;;;;;1.85;0.00;;;;;;;15.15;63.08;99568.44;5023251;28;20033;-72
2023/04/01 12:10:27;;;;;;;0.13;0.00;;;;;;;15.17;64.90;99570.88;5025117;28;20039;-72
2023/04/01 12:13:03;;;;;;;0.40;0.00;;;;;;;15.13;66.69;99572.25;5029225;28;20087;-72